createdAt,value
2023-06-29T00:00:11.403Z,54.48
2023-06-29T00:02:44.459Z,64.79
2023-06-29T00:05:15.370Z,75.04
2023-06-29T00:07:46.396Z,75.01
2023-06-29T00:10:17.314Z,76.01
2023-06-29T00:12:48.389Z,76.74
2023-06-29T00:15:19.435Z,78.23
2023-06-29T00:17:50.517Z,77.95
2023-06-29T00:20:21.717Z,77.68
2023-06-29T00:22:53.125Z,77.85
2023-06-29T00:25:23.960Z,78.13
2023-06-29T00:27:55.006Z,79.83
2023-06-29T00:30:25.938Z,79.53
2023-06-29T00:32:57.529Z,80.24
2023-06-29T00:35:28.349Z,80.16
2023-06-29T00:38:01.836Z,79.04
2023-06-29T00:40:34.447Z,78.04
2023-06-29T00:43:05.550Z,77.55
2023-06-29T00:45:36.707Z,77.01
2023-06-29T00:48:09.995Z,77.16
2023-06-29T00:50:42.065Z,76.44
2023-06-29T00:53:13.856Z,76.98
2023-06-29T00:55:45.369Z,76.44
2023-06-29T00:58:16.827Z,72.70
2023-06-29T01:00:47.613Z,72.61
2023-06-29T01:03:18.805Z,72.13
2023-06-29T01:05:53.230Z,71.72
2023-06-29T01:08:30.577Z,71.05
2023-06-29T01:11:03.384Z,71.31
2023-06-29T01:13:35.120Z,71.04
2023-06-29T01:16:07.699Z,70.34
2023-06-29T01:18:40.014Z,70.78
2023-06-29T01:21:14.771Z,70.21
2023-06-29T01:23:48.169Z,70.13
2023-06-29T01:26:19.492Z,69.64
2023-06-29T01:28:54.889Z,69.48
2023-06-29T01:31:29.469Z,69.27
2023-06-29T01:34:00.979Z,69.09
2023-06-29T01:36:44.905Z,69.61
2023-06-29T01:39:22.945Z,69.00
2023-06-29T01:41:55.929Z,69.09
2023-06-29T01:44:26.926Z,68.66
2023-06-29T01:46:59.540Z,68.91
2023-06-29T01:49:31.061Z,68.77
2023-06-29T01:52:02.247Z,68.90
2023-06-29T01:54:33.475Z,68.32
2023-06-29T01:57:08.173Z,68.60
2023-06-29T01:59:39.904Z,68.19
2023-06-29T02:02:11.031Z,68.46
2023-06-29T02:04:42.537Z,68.17
2023-06-29T02:07:14.462Z,68.02
2023-06-29T02:09:46.087Z,67.88
2023-06-29T02:12:17.421Z,68.29
2023-06-29T02:14:48.474Z,67.78
2023-06-29T02:17:19.928Z,69.16
2023-06-29T02:19:51.428Z,68.00
2023-06-29T02:22:22.862Z,67.79
2023-06-29T02:24:54.879Z,67.38
2023-06-29T02:27:25.862Z,67.20
2023-06-29T02:29:56.667Z,67.14
2023-06-29T02:32:28.032Z,67.36
2023-06-29T02:34:59.357Z,67.40
2023-06-29T02:37:30.990Z,67.43
2023-06-29T02:40:02.258Z,67.42
2023-06-29T02:42:34.890Z,66.89
2023-06-29T02:45:08.119Z,66.91
2023-06-29T02:47:39.690Z,66.67
2023-06-29T02:50:11.531Z,66.83
2023-06-29T02:52:52.932Z,66.46
2023-06-29T02:55:27.187Z,66.83
2023-06-29T02:57:58.545Z,66.62
2023-06-29T03:00:29.941Z,66.59
2023-06-29T03:03:01.223Z,66.29
2023-06-29T03:05:32.748Z,66.28
2023-06-29T03:08:07.645Z,66.30
2023-06-29T03:10:39.017Z,66.31
2023-06-29T03:13:10.323Z,66.15
2023-06-29T03:15:41.910Z,66.22
2023-06-29T03:18:13.346Z,66.33
2023-06-29T03:20:44.568Z,66.32
2023-06-29T03:23:16.471Z,66.10
2023-06-29T03:25:47.643Z,66.04
2023-06-29T03:28:18.998Z,66.13
2023-06-29T03:30:50.276Z,66.12
2023-06-29T03:33:21.775Z,65.99
2023-06-29T03:35:53.010Z,65.88
2023-06-29T03:38:25.507Z,65.43
2023-06-29T03:40:56.629Z,65.61
2023-06-29T03:43:27.841Z,65.43
2023-06-29T03:46:01.948Z,65.34
2023-06-29T03:48:33.294Z,65.17
2023-06-29T03:51:04.616Z,65.42
2023-06-29T03:53:35.973Z,65.46
2023-06-29T03:56:07.357Z,65.38
2023-06-29T03:58:38.711Z,64.81
2023-06-29T04:01:10.073Z,64.96
2023-06-29T04:03:41.335Z,64.99
2023-06-29T04:06:12.709Z,65.08
2023-06-29T04:08:43.954Z,65.02
2023-06-29T04:11:15.341Z,64.63
2023-06-29T04:13:46.727Z,64.74
2023-06-29T04:16:18.582Z,64.52
2023-06-29T04:18:49.823Z,64.65
2023-06-29T04:21:21.132Z,64.59
2023-06-29T04:23:52.860Z,64.71
2023-06-29T04:26:25.103Z,64.83
2023-06-29T04:29:09.092Z,64.39
2023-06-29T04:31:40.517Z,64.38
2023-06-29T04:34:11.760Z,64.61
2023-06-29T04:36:43.128Z,64.79
2023-06-29T04:39:15.821Z,64.23
2023-06-29T04:41:49.426Z,64.38
2023-06-29T04:44:23.966Z,64.23
2023-06-29T04:46:55.533Z,64.04
2023-06-29T04:49:29.776Z,64.39
2023-06-29T04:52:03.923Z,64.10
2023-06-29T04:54:35.906Z,64.17
2023-06-29T04:57:07.559Z,64.07
2023-06-29T04:59:38.961Z,64.12
2023-06-29T05:02:10.160Z,64.08
2023-06-29T05:04:41.585Z,63.90
2023-06-29T05:07:12.935Z,64.05
2023-06-29T05:09:44.524Z,63.72
2023-06-29T05:12:17.068Z,64.05
2023-06-29T05:14:48.511Z,63.73
2023-06-29T05:17:20.612Z,63.64
2023-06-29T05:19:52.010Z,63.65
2023-06-29T05:22:23.193Z,63.91
2023-06-29T05:24:54.821Z,63.66
2023-06-29T05:27:25.969Z,63.57
2023-06-29T05:29:57.327Z,63.43
2023-06-29T05:32:29.398Z,63.54
2023-06-29T05:35:00.544Z,63.10
2023-06-29T05:37:33.576Z,63.49
2023-06-29T05:40:04.601Z,63.46
2023-06-29T05:42:36.016Z,63.49
2023-06-29T05:45:08.202Z,63.20
2023-06-29T05:47:39.557Z,63.18
2023-06-29T05:50:11.440Z,62.74
2023-06-29T05:52:42.792Z,63.26
2023-06-29T05:55:14.213Z,63.08
2023-06-29T05:57:45.765Z,63.22
2023-06-29T06:00:20.848Z,62.93
2023-06-29T06:02:51.935Z,63.34
2023-06-29T06:05:22.950Z,63.14
2023-06-29T06:07:54.433Z,63.15
2023-06-29T06:10:25.697Z,63.05
2023-06-29T06:12:56.997Z,62.72
2023-06-29T06:15:28.139Z,62.69
2023-06-29T06:17:59.621Z,62.63
2023-06-29T06:20:30.744Z,62.64
2023-06-29T06:23:02.048Z,62.48
2023-06-29T06:25:33.357Z,62.33
2023-06-29T06:28:04.915Z,62.39
2023-06-29T06:30:35.742Z,63.03
2023-06-29T06:33:06.939Z,62.24
2023-06-29T06:35:38.139Z,62.29
2023-06-29T06:38:09.740Z,62.22
2023-06-29T06:40:40.721Z,62.26
2023-06-29T06:43:12.208Z,62.36
2023-06-29T06:45:43.323Z,61.97
2023-06-29T06:48:15.121Z,61.99
2023-06-29T06:50:46.081Z,62.52
2023-06-29T06:53:17.613Z,62.19
2023-06-29T06:55:48.813Z,62.07
2023-06-29T06:58:20.043Z,62.05
2023-06-29T07:00:51.650Z,61.72
2023-06-29T07:03:23.175Z,61.78
2023-06-29T07:05:56.154Z,62.01
2023-06-29T07:08:27.481Z,61.84
2023-06-29T07:10:58.686Z,61.86
2023-06-29T07:13:30.040Z,61.82
2023-06-29T07:16:01.260Z,61.83
2023-06-29T07:18:33.933Z,61.97
2023-06-29T07:26:14.334Z,61.66
2023-06-29T07:28:45.030Z,62.22
2023-06-29T07:31:16.212Z,61.75
2023-06-29T07:33:47.631Z,61.84
2023-06-29T07:36:19.015Z,61.51
2023-06-29T07:38:50.969Z,61.74
2023-06-29T07:41:23.541Z,61.55
2023-06-29T07:43:59.403Z,61.60
2023-06-29T07:46:30.841Z,61.50
2023-06-29T07:49:02.207Z,61.52
2023-06-29T07:51:35.722Z,61.61
2023-06-29T07:54:09.063Z,61.68
2023-06-29T07:59:14.525Z,61.63
2023-06-29T08:01:45.686Z,61.47
2023-06-29T08:06:42.329Z,61.79
2023-06-29T08:07:10.727Z,61.91
2023-06-29T08:09:42.529Z,61.86
2023-06-29T08:12:13.605Z,61.87
2023-06-29T08:14:46.192Z,62.20
2023-06-29T08:17:17.485Z,62.19
2023-06-29T08:19:48.864Z,62.82
2023-06-29T08:22:19.909Z,62.80
2023-06-29T08:24:51.499Z,63.60
2023-06-29T08:27:25.322Z,63.90
2023-06-29T08:29:57.652Z,63.90
2023-06-29T08:32:29.244Z,63.94
2023-06-29T08:35:00.823Z,64.03
2023-06-29T08:37:31.868Z,63.85
2023-06-29T08:40:03.338Z,64.00
2023-06-29T08:42:33.964Z,65.19
2023-06-29T08:45:05.309Z,64.57
2023-06-29T08:47:38.886Z,64.62
2023-06-29T08:50:12.879Z,64.07
2023-06-29T08:52:46.080Z,64.30
2023-06-29T08:55:17.850Z,64.57
2023-06-29T08:57:48.459Z,65.56
2023-06-29T09:00:19.860Z,64.66
2023-06-29T09:02:54.090Z,65.09
2023-06-29T09:05:25.700Z,65.46
2023-06-29T09:07:57.099Z,66.11
2023-06-29T09:10:28.614Z,66.28
2023-06-29T09:12:59.922Z,66.39
2023-06-29T09:15:31.907Z,66.19
2023-06-29T09:18:02.964Z,68.23
2023-06-29T09:20:38.378Z,66.98
2023-06-29T09:23:10.284Z,66.39
2023-06-29T09:25:42.297Z,66.25
2023-06-29T09:28:15.638Z,66.14
2023-06-29T09:30:47.336Z,65.84
2023-06-29T09:33:21.155Z,66.15
2023-06-29T09:35:55.845Z,66.22
2023-06-29T09:38:27.909Z,65.98
2023-06-29T09:40:59.255Z,66.06
2023-06-29T09:43:32.219Z,66.17
2023-06-29T09:46:12.954Z,66.57
2023-06-29T09:51:26.247Z,66.15
2023-06-29T09:53:57.724Z,66.18
2023-06-29T09:56:29.453Z,65.98
2023-06-29T09:59:03.652Z,66.27
2023-06-29T10:01:35.179Z,66.27
2023-06-29T10:04:07.402Z,66.32
2023-06-29T10:06:45.703Z,66.44
2023-06-29T10:09:23.702Z,66.67
2023-06-29T10:11:58.889Z,66.38
2023-06-29T10:14:30.536Z,66.32
2023-06-29T10:17:04.108Z,66.23
2023-06-29T10:19:38.302Z,66.25
2023-06-29T10:22:14.569Z,66.09
2023-06-29T10:24:58.166Z,69.33
2023-06-29T10:27:33.169Z,71.20
2023-06-29T10:30:08.854Z,72.66
2023-06-29T10:32:42.583Z,73.42
2023-06-29T10:35:17.212Z,74.64
2023-06-29T10:37:52.944Z,74.78
2023-06-29T10:40:29.628Z,75.55
2023-06-29T10:43:00.787Z,76.07
2023-06-29T10:45:35.637Z,76.51
2023-06-29T10:48:08.203Z,76.83
2023-06-29T10:50:45.329Z,77.41
2023-06-29T10:53:18.399Z,77.72
2023-06-29T10:55:59.247Z,78.38
2023-06-29T10:58:35.931Z,78.41
2023-06-29T11:01:07.506Z,79.09
2023-06-29T11:03:38.863Z,79.77
2023-06-29T11:06:11.545Z,76.83
2023-06-29T11:08:51.057Z,76.51
2023-06-29T11:11:24.525Z,75.80
2023-06-29T11:13:58.818Z,75.60
2023-06-29T11:16:31.132Z,74.92
2023-06-29T11:19:05.346Z,74.68
2023-06-29T11:21:36.787Z,74.69
2023-06-29T11:24:08.209Z,74.77
2023-06-29T11:26:39.772Z,74.35
2023-06-29T11:29:11.165Z,74.50
2023-06-29T11:31:42.884Z,75.02
2023-06-29T11:34:16.545Z,74.61
2023-06-29T11:39:40.599Z,74.86
2023-06-29T11:42:12.627Z,74.48
2023-06-29T11:44:43.775Z,74.75
2023-06-29T11:47:32.863Z,75.94
2023-06-29T11:50:07.272Z,76.90
2023-06-29T11:52:41.170Z,75.06
2023-06-29T11:55:15.292Z,76.33
2023-06-29T11:57:56.234Z,76.81
2023-06-29T12:00:33.221Z,76.78
2023-06-29T12:03:12.783Z,76.36
2023-06-29T12:05:45.166Z,75.42
2023-06-29T12:08:18.356Z,76.02
2023-06-29T12:10:49.631Z,77.42
2023-06-29T12:13:22.003Z,75.81
2023-06-29T12:18:34.520Z,76.31
2023-06-29T12:21:07.891Z,75.58
2023-06-29T12:23:39.559Z,76.19
2023-06-29T12:26:10.907Z,75.85
2023-06-29T12:28:42.618Z,76.26
2023-06-29T12:31:14.835Z,76.31
2023-06-29T12:33:47.246Z,76.02
2023-06-29T12:36:18.418Z,76.32
2023-06-29T12:38:52.778Z,76.60
2023-06-29T12:41:23.998Z,75.95
2023-06-29T12:43:55.228Z,76.54
2023-06-29T12:46:30.586Z,76.21
2023-06-29T12:49:03.349Z,75.90
2023-06-29T12:51:35.747Z,76.59
2023-06-29T12:54:07.654Z,76.76
2023-06-29T12:56:38.966Z,77.01
2023-06-29T12:59:10.336Z,75.86
2023-06-29T13:01:41.933Z,76.58
2023-06-29T13:04:13.882Z,76.11
2023-06-29T13:06:45.417Z,76.72
2023-06-29T13:09:16.928Z,76.69
2023-06-29T13:11:48.227Z,77.71
2023-06-29T13:14:19.891Z,74.95
2023-06-29T13:16:51.043Z,73.63
2023-06-29T13:19:22.469Z,71.14
2023-06-29T13:21:53.953Z,71.50
2023-06-29T13:24:25.712Z,69.47
2023-06-29T13:26:56.941Z,67.88
2023-06-29T13:29:28.341Z,65.83
2023-06-29T13:32:00.674Z,65.78
2023-06-29T13:34:35.083Z,65.08
2023-06-29T13:37:07.220Z,64.57
2023-06-29T13:39:40.125Z,63.82
2023-06-29T13:42:17.278Z,62.63
2023-06-29T13:44:49.348Z,62.94
2023-06-29T13:47:21.057Z,62.42
2023-06-29T13:49:53.336Z,61.63
2023-06-29T13:52:24.623Z,60.45
2023-06-29T13:54:56.084Z,59.14
2023-06-29T13:57:27.469Z,57.94
2023-06-29T13:59:59.201Z,57.37
2023-06-29T14:02:30.587Z,57.19
2023-06-29T14:05:02.450Z,56.99
2023-06-29T14:07:34.125Z,56.04
2023-06-29T14:10:05.760Z,55.92
2023-06-29T14:12:37.141Z,55.11
2023-06-29T14:15:09.396Z,54.90
2023-06-29T14:17:41.369Z,54.80
2023-06-29T14:20:12.526Z,54.67
2023-06-29T14:22:43.558Z,54.00
2023-06-29T14:25:14.869Z,53.80
2023-06-29T14:27:46.121Z,53.12
2023-06-29T14:30:17.882Z,53.06
2023-06-29T14:32:52.878Z,52.43
2023-06-29T14:35:32.162Z,52.04
2023-06-29T14:38:13.287Z,52.20
2023-06-29T14:40:45.673Z,52.32
2023-06-29T14:43:17.059Z,52.30
2023-06-29T14:45:49.325Z,52.11
2023-06-29T14:48:20.934Z,51.80
2023-06-29T14:50:57.819Z,53.91
2023-06-29T14:53:29.310Z,54.87
2023-06-29T14:56:09.001Z,52.31
2023-06-29T14:58:40.742Z,53.61
2023-06-29T15:01:12.191Z,52.66
2023-06-29T15:03:43.803Z,51.88
2023-06-29T15:06:15.428Z,50.58
2023-06-29T15:08:47.009Z,52.25
2023-06-29T15:11:18.554Z,50.92
2023-06-29T15:13:50.399Z,49.79
2023-06-29T15:16:21.913Z,49.98
2023-06-29T15:18:59.669Z,49.43
2023-06-29T15:21:31.990Z,49.94
2023-06-29T15:24:03.925Z,49.08
2023-06-29T15:26:35.438Z,49.50
2023-06-29T15:29:07.511Z,48.56
2023-06-29T15:31:38.902Z,49.29
2023-06-29T15:34:13.026Z,48.65
2023-06-29T15:36:45.196Z,49.46
2023-06-29T15:39:16.447Z,48.49
2023-06-29T15:41:50.399Z,47.84
2023-06-29T15:44:22.641Z,47.80
2023-06-29T15:46:56.329Z,47.59
2023-06-29T15:49:27.621Z,48.77
2023-06-29T15:51:59.025Z,47.84
2023-06-29T15:54:30.196Z,47.94
2023-06-29T15:57:01.678Z,47.25
2023-06-29T15:59:32.882Z,46.79
2023-06-29T16:02:04.378Z,47.36
2023-06-29T16:04:35.868Z,47.61
2023-06-29T16:07:10.034Z,46.77
2023-06-29T16:09:41.592Z,47.80
2023-06-29T16:12:13.030Z,47.35
2023-06-29T16:14:44.405Z,46.92
2023-06-29T16:17:15.630Z,48.13
2023-06-29T16:19:47.013Z,48.06
2023-06-29T16:22:18.387Z,47.62
2023-06-29T16:24:49.982Z,47.52
2023-06-29T16:27:21.247Z,47.78
2023-06-29T16:29:52.487Z,47.99
2023-06-29T16:32:23.754Z,46.91
2023-06-29T16:34:55.000Z,47.12
2023-06-29T16:37:26.724Z,46.37
2023-06-29T16:39:57.860Z,46.74
2023-06-29T16:42:29.202Z,46.92
2023-06-29T16:45:00.322Z,46.72
2023-06-29T16:47:31.534Z,46.57
2023-06-29T16:50:02.891Z,45.59
2023-06-29T16:52:34.389Z,47.00
2023-06-29T16:55:06.034Z,46.55
2023-06-29T16:57:37.402Z,45.71
2023-06-29T17:00:10.672Z,45.84
2023-06-29T17:02:42.084Z,45.92
2023-06-29T17:05:13.293Z,46.67
2023-06-29T17:07:44.557Z,46.27
2023-06-29T17:10:16.032Z,45.54
2023-06-29T17:12:47.427Z,46.01
2023-06-29T17:15:18.686Z,45.80
2023-06-29T17:17:49.994Z,46.64
2023-06-29T17:20:21.819Z,46.05
2023-06-29T17:22:53.405Z,46.26
2023-06-29T17:25:24.617Z,45.85
2023-06-29T17:27:55.885Z,45.83
2023-06-29T17:30:26.958Z,46.04
2023-06-29T17:32:58.192Z,45.94
2023-06-29T17:35:29.427Z,45.17
2023-06-29T17:38:01.190Z,45.90
2023-06-29T17:40:33.457Z,45.98
2023-06-29T17:43:04.151Z,44.85
2023-06-29T17:45:35.697Z,46.00
2023-06-29T17:48:10.923Z,45.88
2023-06-29T17:50:42.158Z,45.89
2023-06-29T17:53:13.395Z,45.61
2023-06-29T17:55:44.695Z,45.82
2023-06-29T17:58:16.208Z,45.33
2023-06-29T18:00:47.355Z,45.54
2023-06-29T18:03:18.861Z,45.37
2023-06-29T18:05:50.349Z,44.84
2023-06-29T18:08:21.587Z,45.44
2023-06-29T18:10:52.718Z,44.90
2023-06-29T18:13:24.118Z,44.90
2023-06-29T18:15:55.305Z,45.30
2023-06-29T18:18:26.453Z,45.15
2023-06-29T18:20:57.646Z,45.60
2023-06-29T18:23:28.815Z,45.28
2023-06-29T18:26:00.048Z,44.71
2023-06-29T18:28:31.379Z,44.86
2023-06-29T18:31:02.570Z,44.99
2023-06-29T18:33:33.772Z,44.69
2023-06-29T18:36:04.887Z,45.25
2023-06-29T18:38:36.728Z,44.98
2023-06-29T18:41:08.681Z,45.34
2023-06-29T18:43:40.112Z,44.78
2023-06-29T18:46:11.250Z,44.71
2023-06-29T18:48:42.588Z,45.51
2023-06-29T18:51:13.848Z,44.74
2023-06-29T18:53:45.212Z,44.50
2023-06-29T18:56:16.474Z,45.17
2023-06-29T18:58:48.751Z,44.68
2023-06-29T19:01:19.774Z,44.79
2023-06-29T19:03:50.789Z,44.76
2023-06-29T19:06:22.057Z,45.43
2023-06-29T19:08:53.368Z,44.80
2023-06-29T19:11:25.596Z,44.79
2023-06-29T19:13:57.120Z,44.85
2023-06-29T19:16:29.817Z,45.11
2023-06-29T19:19:00.946Z,45.31
2023-06-29T19:21:47.105Z,44.97
2023-06-29T19:24:20.577Z,44.63
2023-06-29T19:26:52.904Z,44.38
2023-06-29T19:29:24.014Z,44.82
2023-06-29T19:31:55.471Z,44.77
2023-06-29T19:34:27.395Z,45.34
2023-06-29T19:37:03.536Z,44.72
2023-06-29T19:39:35.430Z,44.39
2023-06-29T19:42:07.772Z,44.94
2023-06-29T19:44:39.211Z,44.62
2023-06-29T19:47:10.392Z,44.26
2023-06-29T19:49:41.648Z,44.42
2023-06-29T19:52:12.917Z,44.99
2023-06-29T19:54:44.212Z,44.97
2023-06-29T19:57:15.740Z,44.13
2023-06-29T19:59:47.121Z,44.20
2023-06-29T20:02:18.314Z,44.15
2023-06-29T20:04:49.752Z,44.69
2023-06-29T20:07:20.959Z,44.65
2023-06-29T20:09:52.256Z,44.77
2023-06-29T20:12:23.408Z,44.39
2023-06-29T20:14:54.740Z,44.32
2023-06-29T20:17:25.926Z,44.21
2023-06-29T20:19:57.940Z,44.13
2023-06-29T20:22:29.208Z,44.36
2023-06-29T20:25:00.418Z,44.35
2023-06-29T20:27:31.872Z,44.24
2023-06-29T20:30:03.155Z,44.25
2023-06-29T20:32:36.406Z,44.06
2023-06-29T20:35:08.714Z,43.99
2023-06-29T20:37:39.649Z,43.99
2023-06-29T20:40:11.493Z,44.17
2023-06-29T20:42:42.869Z,43.83
2023-06-29T20:45:14.849Z,44.23
2023-06-29T20:47:45.759Z,44.22
2023-06-29T20:50:16.708Z,44.42
2023-06-29T20:52:48.123Z,44.11
2023-06-29T20:55:19.328Z,44.20
2023-06-29T20:57:50.454Z,44.00
2023-06-29T21:00:21.898Z,44.07
2023-06-29T21:02:53.975Z,43.64
2023-06-29T21:05:26.811Z,43.97
2023-06-29T21:07:58.587Z,44.16
2023-06-29T21:10:29.872Z,43.89
2023-06-29T21:13:01.293Z,43.79
2023-06-29T21:15:32.991Z,43.63
2023-06-29T21:18:05.835Z,43.80
2023-06-29T21:20:37.484Z,44.14
2023-06-29T21:23:08.908Z,44.03
2023-06-29T21:25:40.287Z,43.76
2023-06-29T21:28:12.720Z,43.80
2023-06-29T21:30:44.256Z,43.82
2023-06-29T21:33:16.689Z,43.70
2023-06-29T21:35:47.732Z,43.53
2023-06-29T21:38:19.808Z,43.83
2023-06-29T21:40:52.841Z,43.89
2023-06-29T21:43:24.428Z,43.75
2023-06-29T21:45:55.743Z,43.58
2023-06-29T21:48:26.989Z,43.88
2023-06-29T21:50:58.364Z,44.08
2023-06-29T21:53:29.549Z,44.03
2023-06-29T21:56:10.269Z,44.12
2023-06-29T21:58:51.817Z,43.89
2023-06-29T22:01:23.073Z,44.19
2023-06-29T22:03:54.244Z,45.46
2023-06-29T22:06:25.789Z,47.04
2023-06-29T22:08:56.879Z,48.23
2023-06-29T22:11:29.159Z,49.80
2023-06-29T22:14:00.411Z,51.37
2023-06-29T22:16:31.880Z,52.49
2023-06-29T22:19:03.087Z,52.83
2023-06-29T22:21:34.356Z,53.93
2023-06-29T22:24:06.113Z,55.14
2023-06-29T22:26:37.694Z,55.56
2023-06-29T22:29:08.985Z,56.65
2023-06-29T22:31:40.366Z,57.41
2023-06-29T22:34:11.427Z,57.79
2023-06-29T22:36:43.360Z,57.87
2023-06-29T22:39:14.612Z,57.63
2023-06-29T22:41:46.326Z,56.94
2023-06-29T22:44:18.057Z,55.75
2023-06-29T22:46:49.622Z,55.16
2023-06-29T22:49:20.897Z,54.21
2023-06-29T22:51:52.096Z,53.42
2023-06-29T22:54:23.172Z,53.74
2023-06-29T22:56:57.511Z,55.05
2023-06-29T22:59:28.988Z,56.86
2023-06-29T23:02:00.388Z,60.42
2023-06-29T23:04:31.647Z,60.58
2023-06-29T23:07:03.677Z,60.37
2023-06-29T23:09:35.030Z,60.32
2023-06-29T23:12:06.890Z,60.93
2023-06-29T23:14:38.528Z,60.93
2023-06-29T23:17:09.864Z,61.12
2023-06-29T23:19:41.029Z,61.01
2023-06-29T23:22:12.293Z,61.12
2023-06-29T23:24:46.658Z,61.83
2023-06-29T23:27:19.341Z,61.37
2023-06-29T23:29:50.618Z,63.36
2023-06-29T23:32:22.046Z,64.52
2023-06-29T23:34:53.224Z,64.24
2023-06-29T23:37:24.560Z,63.93
2023-06-29T23:39:56.387Z,64.44
2023-06-29T23:42:27.447Z,64.43
2023-06-29T23:44:59.434Z,64.44
2023-06-29T23:47:31.770Z,64.64
2023-06-29T23:50:05.878Z,64.69
2023-06-29T23:52:37.117Z,64.73
2023-06-29T23:55:14.222Z,64.85
2023-06-29T23:57:45.626Z,64.61
